sensor_id;sensor_type;location;lat;lon;timestamp;pressure;altitude;pressure_sealevel;temperature;humidity
69630;BME280;56857;52.212;5.496;2023-05-20T00:00:40;102613.59;;;11.43;100.00
69630;BME280;56857;52.212;5.496;2023-05-20T00:03:05;102610.94;;;11.43;100.00
69630;BME280;56857;52.212;5.496;2023-05-20T00:05:31;102612.63;;;11.44;100.00
69630;BME280;56857;52.212;5.496;2023-05-20T00:07:56;102610.94;;;11.43;100.00
69630;BME280;56857;52.212;5.496;2023-05-20T00:10:21;102602.25;;;11.41;100.00
69630;BME280;56857;52.212;5.496;2023-05-20T00:12:46;102608.53;;;11.40;100.00
69630;BME280;56857;52.212;5.496;2023-05-20T00:15:12;102611.47;;;11.37;100.00
69630;BME280;56857;52.212;5.496;2023-05-20T00:17:37;102614.38;;;11.34;100.00
69630;BME280;56857;52.212;5.496;2023-05-20T00:20:04;102618.13;;;11.31;100.00
69630;BME280;56857;52.212;5.496;2023-05-20T00:22:29;102618.28;;;11.30;100.00
69630;BME280;56857;52.212;5.496;2023-05-20T00:24:55;102619.94;;;11.31;100.00
69630;BME280;56857;52.212;5.496;2023-05-20T00:27:20;102617.44;;;11.29;100.00
69630;BME280;56857;52.212;5.496;2023-05-20T00:29:45;102621.31;;;11.25;100.00
69630;BME280;56857;52.212;5.496;2023-05-20T00:32:10;102619.06;;;11.21;100.00
69630;BME280;56857;52.212;5.496;2023-05-20T00:34:36;102615.94;;;11.16;100.00
69630;BME280;56857;52.212;5.496;2023-05-20T00:37:01;102616.91;;;11.14;100.00
69630;BME280;56857;52.212;5.496;2023-05-20T00:39:26;102612.13;;;11.08;100.00
69630;BME280;56857;52.212;5.496;2023-05-20T00:41:52;102610.31;;;11.09;100.00
69630;BME280;56857;52.212;5.496;2023-05-20T00:44:17;102608.06;;;11.04;100.00
69630;BME280;56857;52.212;5.496;2023-05-20T00:46:43;102601.78;;;11.05;100.00
69630;BME280;56857;52.212;5.496;2023-05-20T00:49:09;102606.50;;;11.02;100.00
69630;BME280;56857;52.212;5.496;2023-05-20T00:51:34;102606.75;;;10.99;100.00
69630;BME280;56857;52.212;5.496;2023-05-20T00:54:00;102609.81;;;10.94;100.00
69630;BME280;56857;52.212;5.496;2023-05-20T00:56:25;102604.75;;;10.91;100.00
69630;BME280;56857;52.212;5.496;2023-05-20T00:58:51;102606.09;;;10.85;100.00
69630;BME280;56857;52.212;5.496;2023-05-20T01:01:16;102604.69;;;10.81;100.00
69630;BME280;56857;52.212;5.496;2023-05-20T01:03:42;102598.91;;;10.76;100.00
69630;BME280;56857;52.212;5.496;2023-05-20T01:06:07;102603.38;;;10.76;100.00
69630;BME280;56857;52.212;5.496;2023-05-20T01:08:32;102594.84;;;10.72;100.00
69630;BME280;56857;52.212;5.496;2023-05-20T01:11:05;102590.63;;;10.70;100.00
69630;BME280;56857;52.212;5.496;2023-05-20T01:13:38;102594.38;;;10.67;100.00
69630;BME280;56857;52.212;5.496;2023-05-20T01:16:05;102590.16;;;10.64;100.00
69630;BME280;56857;52.212;5.496;2023-05-20T01:18:32;102587.63;;;10.63;100.00
69630;BME280;56857;52.212;5.496;2023-05-20T01:20:58;102578.13;;;10.60;100.00
69630;BME280;56857;52.212;5.496;2023-05-20T01:23:40;102580.38;;;10.65;100.00
69630;BME280;56857;52.212;5.496;2023-05-20T01:26:05;102582.91;;;10.66;100.00
69630;BME280;56857;52.212;5.496;2023-05-20T01:28:32;102580.38;;;10.65;100.00
69630;BME280;56857;52.212;5.496;2023-05-20T01:31:00;102577.72;;;10.65;100.00
69630;BME280;56857;52.212;5.496;2023-05-20T01:33:27;102579.47;;;10.55;100.00
69630;BME280;56857;52.212;5.496;2023-05-20T01:35:54;102573.00;;;10.48;100.00
69630;BME280;56857;52.212;5.496;2023-05-20T01:38:22;102575.63;;;10.48;100.00
69630;BME280;56857;52.212;5.496;2023-05-20T01:40:48;102571.56;;;10.43;100.00
69630;BME280;56857;52.212;5.496;2023-05-20T01:43:15;102566.50;;;10.40;100.00
69630;BME280;56857;52.212;5.496;2023-05-20T01:45:41;102559.75;;;10.36;100.00
69630;BME280;56857;52.212;5.496;2023-05-20T01:48:09;102557.75;;;10.29;100.00
69630;BME280;56857;52.212;5.496;2023-05-20T01:50:35;102566.16;;;10.23;100.00
69630;BME280;56857;52.212;5.496;2023-05-20T01:53:00;102572.94;;;10.15;100.00
69630;BME280;56857;52.212;5.496;2023-05-20T01:55:25;102572.47;;;10.10;100.00
69630;BME280;56857;52.212;5.496;2023-05-20T01:57:51;102561.25;;;10.07;100.00
69630;BME280;56857;52.212;5.496;2023-05-20T02:00:16;102563.19;;;10.05;100.00
69630;BME280;56857;52.212;5.496;2023-05-20T02:02:41;102565.84;;;10.05;100.00
69630;BME280;56857;52.212;5.496;2023-05-20T02:05:07;102553.81;;;10.01;100.00
69630;BME280;56857;52.212;5.496;2023-05-20T02:07:32;102557.69;;;9.96;100.00
69630;BME280;56857;52.212;5.496;2023-05-20T02:09:58;102561.88;;;9.99;100.00
69630;BME280;56857;52.212;5.496;2023-05-20T02:12:23;102571.38;;;10.02;100.00
69630;BME280;56857;52.212;5.496;2023-05-20T02:14:48;102563.44;;;10.02;100.00
69630;BME280;56857;52.212;5.496;2023-05-20T02:17:16;102565.84;;;10.05;100.00
69630;BME280;56857;52.212;5.496;2023-05-20T02:19:42;102568.38;;;10.06;100.00
69630;BME280;56857;52.212;5.496;2023-05-20T02:22:08;102562.09;;;10.07;100.00
69630;BME280;56857;52.212;5.496;2023-05-20T02:24:33;102562.00;;;10.09;100.00
69630;BME280;56857;52.212;5.496;2023-05-20T02:26:59;102564.91;;;10.06;100.00
69630;BME280;56857;52.212;5.496;2023-05-20T02:29:24;102566.22;;;10.00;100.00
69630;BME280;56857;52.212;5.496;2023-05-20T02:31:49;102560.34;;;9.96;100.00
69630;BME280;56857;52.212;5.496;2023-05-20T02:34:16;102561.16;;;9.97;100.00
69630;BME280;56857;52.212;5.496;2023-05-20T02:36:41;102556.34;;;9.91;100.00
69630;BME280;56857;52.212;5.496;2023-05-20T02:39:07;102559.97;;;9.90;100.00
69630;BME280;56857;52.212;5.496;2023-05-20T02:41:33;102561.91;;;9.88;100.00
69630;BME280;56857;52.212;5.496;2023-05-20T02:43:59;102550.47;;;9.87;100.00
69630;BME280;56857;52.212;5.496;2023-05-20T02:46:24;102554.78;;;9.88;100.00
69630;BME280;56857;52.212;5.496;2023-05-20T02:48:50;102546.25;;;9.85;100.00
69630;BME280;56857;52.212;5.496;2023-05-20T02:51:15;102540.72;;;9.77;100.00
69630;BME280;56857;52.212;5.496;2023-05-20T02:53:40;102542.66;;;9.74;100.00
69630;BME280;56857;52.212;5.496;2023-05-20T02:56:07;102543.75;;;9.72;100.00
69630;BME280;56857;52.212;5.496;2023-05-20T02:58:33;102533.41;;;9.69;100.00
69630;BME280;56857;52.212;5.496;2023-05-20T03:00:59;102546.75;;;9.67;100.00
69630;BME280;56857;52.212;5.496;2023-05-20T03:03:25;102545.56;;;9.71;100.00
69630;BME280;56857;52.212;5.496;2023-05-20T03:05:50;102542.41;;;9.66;100.00
69630;BME280;56857;52.212;5.496;2023-05-20T03:08:17;102541.59;;;9.66;100.00
69630;BME280;56857;52.212;5.496;2023-05-20T03:10:42;102541.81;;;9.63;100.00
69630;BME280;56857;52.212;5.496;2023-05-20T03:13:08;102551.91;;;9.58;100.00
69630;BME280;56857;52.212;5.496;2023-05-20T03:15:34;102556.28;;;9.59;100.00
69630;BME280;56857;52.212;5.496;2023-05-20T03:18:00;102554.47;;;9.59;100.00
69630;BME280;56857;52.212;5.496;2023-05-20T03:20:25;102543.75;;;9.61;100.00
69630;BME280;56857;52.212;5.496;2023-05-20T03:22:51;102552.41;;;9.63;100.00
69630;BME280;56857;52.212;5.496;2023-05-20T03:25:16;102553.00;;;9.66;100.00
69630;BME280;56857;52.212;5.496;2023-05-20T03:27:41;102553.59;;;9.70;100.00
69630;BME280;56857;52.212;5.496;2023-05-20T03:30:07;102555.56;;;9.68;100.00
69630;BME280;56857;52.212;5.496;2023-05-20T03:32:32;102558.19;;;9.68;100.00
69630;BME280;56857;52.212;5.496;2023-05-20T03:34:58;102552.66;;;9.71;100.00
69630;BME280;56857;52.212;5.496;2023-05-20T03:37:23;102557.56;;;9.75;100.00
69630;BME280;56857;52.212;5.496;2023-05-20T03:39:48;102554.69;;;9.79;100.00
69630;BME280;56857;52.212;5.496;2023-05-20T03:42:13;102553.47;;;9.83;100.00
69630;BME280;56857;52.212;5.496;2023-05-20T03:44:39;102549.75;;;9.85;100.00
69630;BME280;56857;52.212;5.496;2023-05-20T03:47:04;102552.88;;;9.90;100.00
69630;BME280;56857;52.212;5.496;2023-05-20T03:49:29;102551.75;;;9.93;100.00
69630;BME280;56857;52.212;5.496;2023-05-20T03:51:55;102553.22;;;9.97;100.00
69630;BME280;56857;52.212;5.496;2023-05-20T03:54:20;102559.34;;;9.97;100.00
69630;BME280;56857;52.212;5.496;2023-05-20T03:56:45;102548.63;;;9.99;100.00
69630;BME280;56857;52.212;5.496;2023-05-20T03:59:11;102552.97;;;10.00;100.00
69630;BME280;56857;52.212;5.496;2023-05-20T04:01:37;102546.69;;;10.01;100.00
69630;BME280;56857;52.212;5.496;2023-05-20T04:04:02;102548.25;;;10.04;100.00
69630;BME280;56857;52.212;5.496;2023-05-20T04:06:28;102553.31;;;10.07;100.00
69630;BME280;56857;52.212;5.496;2023-05-20T04:08:53;102547.78;;;10.10;100.00
69630;BME280;56857;52.212;5.496;2023-05-20T04:11:18;102551.13;;;10.12;100.00
69630;BME280;56857;52.212;5.496;2023-05-20T04:13:43;102546.28;;;10.17;100.00
69630;BME280;56857;52.212;5.496;2023-05-20T04:16:09;102536.03;;;10.24;100.00
69630;BME280;56857;52.212;5.496;2023-05-20T04:18:34;102543.66;;;10.28;100.00
69630;BME280;56857;52.212;5.496;2023-05-20T04:20:59;102548.72;;;10.31;100.00
69630;BME280;56857;52.212;5.496;2023-05-20T04:23:25;102548.22;;;10.37;100.00
69630;BME280;56857;52.212;5.496;2023-05-20T04:25:50;102549.50;;;10.43;100.00
69630;BME280;56857;52.212;5.496;2023-05-20T04:28:15;102548.97;;;10.49;100.00
69630;BME280;56857;52.212;5.496;2023-05-20T04:30:41;102547.16;;;10.50;100.00
69630;BME280;56857;52.212;5.496;2023-05-20T04:33:07;102547.63;;;10.55;100.00
69630;BME280;56857;52.212;5.496;2023-05-20T04:35:32;102547.38;;;10.58;100.00
69630;BME280;56857;52.212;5.496;2023-05-20T04:37:58;102554.97;;;10.62;100.00
69630;BME280;56857;52.212;5.496;2023-05-20T04:40:23;102555.31;;;10.69;100.00
69630;BME280;56857;52.212;5.496;2023-05-20T04:42:48;102554.78;;;10.75;100.00
69630;BME280;56857;52.212;5.496;2023-05-20T04:45:14;102552.31;;;10.83;100.00
69630;BME280;56857;52.212;5.496;2023-05-20T04:47:39;102557.25;;;10.88;100.00
69630;BME280;56857;52.212;5.496;2023-05-20T04:50:08;102558.41;;;10.95;100.00
69630;BME280;56857;52.212;5.496;2023-05-20T04:52:34;102563.78;;;11.05;100.00
69630;BME280;56857;52.212;5.496;2023-05-20T04:55:00;102563.84;;;11.14;100.00
69630;BME280;56857;52.212;5.496;2023-05-20T04:57:25;102564.28;;;11.20;100.00
69630;BME280;56857;52.212;5.496;2023-05-20T04:59:52;102555.50;;;11.19;100.00
69630;BME280;56857;52.212;5.496;2023-05-20T05:02:17;102564.28;;;11.20;100.00
69630;BME280;56857;52.212;5.496;2023-05-20T05:04:43;102561.75;;;11.18;100.00
69630;BME280;56857;52.212;5.496;2023-05-20T05:07:08;102559.25;;;11.17;100.00
69630;BME280;56857;52.212;5.496;2023-05-20T05:09:33;102554.88;;;11.16;100.00
69630;BME280;56857;52.212;5.496;2023-05-20T05:11:59;102553.94;;;11.17;100.00
69630;BME280;56857;52.212;5.496;2023-05-20T05:14:24;102545.81;;;11.18;100.00
69630;BME280;56857;52.212;5.496;2023-05-20T05:16:49;102546.66;;;11.19;100.00
69630;BME280;56857;52.212;5.496;2023-05-20T05:19:15;102553.69;;;11.20;100.00
69630;BME280;56857;52.212;5.496;2023-05-20T05:21:40;102549.88;;;11.22;100.00
69630;BME280;56857;52.212;5.496;2023-05-20T05:24:06;102554.00;;;11.26;100.00
69630;BME280;56857;52.212;5.496;2023-05-20T05:26:31;102552.03;;;11.28;100.00
69630;BME280;56857;52.212;5.496;2023-05-20T05:28:57;102546.44;;;11.31;100.00
69630;BME280;56857;52.212;5.496;2023-05-20T05:31:22;102550.81;;;11.32;100.00
69630;BME280;56857;52.212;5.496;2023-05-20T05:33:47;102544.50;;;11.33;100.00
69630;BME280;56857;52.212;5.496;2023-05-20T05:36:12;102543.41;;;11.36;100.00
69630;BME280;56857;52.212;5.496;2023-05-20T05:38:38;102542.16;;;11.40;100.00
69630;BME280;56857;52.212;5.496;2023-05-20T05:41:03;102546.09;;;11.46;100.00
69630;BME280;56857;52.212;5.496;2023-05-20T05:43:28;102547.50;;;11.50;100.00
69630;BME280;56857;52.212;5.496;2023-05-20T05:45:54;102543.75;;;11.52;100.00
69630;BME280;56857;52.212;5.496;2023-05-20T05:48:20;102545.03;;;11.58;100.00
69630;BME280;56857;52.212;5.496;2023-05-20T05:50:45;102540.31;;;11.62;100.00
69630;BME280;56857;52.212;5.496;2023-05-20T05:53:11;102535.44;;;11.67;100.00
69630;BME280;56857;52.212;5.496;2023-05-20T05:55:36;102536.00;;;11.70;100.00
69630;BME280;56857;52.212;5.496;2023-05-20T05:58:02;102539.22;;;11.74;100.00
69630;BME280;56857;52.212;5.496;2023-05-20T06:00:27;102539.63;;;11.79;100.00
69630;BME280;56857;52.212;5.496;2023-05-20T06:02:52;102532.97;;;11.85;100.00
69630;BME280;56857;52.212;5.496;2023-05-20T06:05:18;102537.91;;;11.89;100.00
69630;BME280;56857;52.212;5.496;2023-05-20T06:07:43;102533.16;;;11.93;100.00
69630;BME280;56857;52.212;5.496;2023-05-20T06:10:09;102531.78;;;11.98;100.00
69630;BME280;56857;52.212;5.496;2023-05-20T06:12:34;102535.81;;;12.02;100.00
69630;BME280;56857;52.212;5.496;2023-05-20T06:14:59;102539.75;;;12.08;100.00
69630;BME280;56857;52.212;5.496;2023-05-20T06:17:26;102532.19;;;12.13;100.00
69630;BME280;56857;52.212;5.496;2023-05-20T06:19:51;102540.59;;;12.18;100.00
69630;BME280;56857;52.212;5.496;2023-05-20T06:22:16;102527.88;;;12.22;100.00
69630;BME280;56857;52.212;5.496;2023-05-20T06:24:43;102540.59;;;12.28;100.00
69630;BME280;56857;52.212;5.496;2023-05-20T06:27:08;102533.75;;;12.35;100.00
69630;BME280;56857;52.212;5.496;2023-05-20T06:29:33;102534.19;;;12.40;100.00
69630;BME280;56857;52.212;5.496;2023-05-20T06:31:59;102528.16;;;12.48;100.00
69630;BME280;56857;52.212;5.496;2023-05-20T06:34:24;102532.06;;;12.53;100.00
69630;BME280;56857;52.212;5.496;2023-05-20T06:36:49;102536.97;;;12.58;100.00
69630;BME280;56857;52.212;5.496;2023-05-20T06:39:15;102526.63;;;12.65;100.00
69630;BME280;56857;52.212;5.496;2023-05-20T06:41:40;102526.59;;;12.74;100.00
69630;BME280;56857;52.212;5.496;2023-05-20T06:44:06;102522.38;;;12.82;100.00
69630;BME280;56857;52.212;5.496;2023-05-20T06:46:31;102519.03;;;12.89;100.00
69630;BME280;56857;52.212;5.496;2023-05-20T06:48:57;102509.59;;;12.95;100.00
69630;BME280;56857;52.212;5.496;2023-05-20T06:51:22;102521.38;;;13.02;100.00
69630;BME280;56857;52.212;5.496;2023-05-20T06:53:47;102507.31;;;13.10;100.00
69630;BME280;56857;52.212;5.496;2023-05-20T06:56:12;102509.13;;;13.19;100.00
69630;BME280;56857;52.212;5.496;2023-05-20T06:58:38;102503.91;;;13.27;100.00
69630;BME280;56857;52.212;5.496;2023-05-20T07:01:04;102505.03;;;13.34;100.00
69630;BME280;56857;52.212;5.496;2023-05-20T07:03:30;102501.22;;;13.37;100.00
69630;BME280;56857;52.212;5.496;2023-05-20T07:05:56;102504.97;;;13.44;100.00
69630;BME280;56857;52.212;5.496;2023-05-20T07:08:21;102499.59;;;13.54;100.00
69630;BME280;56857;52.212;5.496;2023-05-20T07:10:46;102502.03;;;13.65;100.00
69630;BME280;56857;52.212;5.496;2023-05-20T07:13:12;102499.78;;;13.70;100.00
69630;BME280;56857;52.212;5.496;2023-05-20T07:15:37;102493.16;;;13.74;100.00
69630;BME280;56857;52.212;5.496;2023-05-20T07:18:02;102497.06;;;13.80;100.00
69630;BME280;56857;52.212;5.496;2023-05-20T07:20:28;102492.44;;;13.82;100.00
69630;BME280;56857;52.212;5.496;2023-05-20T07:22:53;102492.78;;;13.87;100.00
69630;BME280;56857;52.212;5.496;2023-05-20T07:25:19;102492.88;;;13.95;100.00
69630;BME280;56857;52.212;5.496;2023-05-20T07:27:44;102501.50;;;14.07;100.00
69630;BME280;56857;52.212;5.496;2023-05-20T07:30:09;102487.41;;;14.14;100.00
69630;BME280;56857;52.212;5.496;2023-05-20T07:32:35;102481.47;;;14.21;100.00
69630;BME280;56857;52.212;5.496;2023-05-20T07:35:00;102480.53;;;14.30;100.00
69630;BME280;56857;52.212;5.496;2023-05-20T07:37:26;102481.47;;;14.38;100.00
69630;BME280;56857;52.212;5.496;2023-05-20T07:39:51;102481.50;;;14.47;100.00
69630;BME280;56857;52.212;5.496;2023-05-20T07:42:17;102484.81;;;14.58;100.00
69630;BME280;56857;52.212;5.496;2023-05-20T07:44:42;102480.38;;;14.67;100.00
69630;BME280;56857;52.212;5.496;2023-05-20T07:47:07;102475.09;;;14.75;100.00
69630;BME280;56857;52.212;5.496;2023-05-20T07:49:32;102483.13;;;14.83;100.00
69630;BME280;56857;52.212;5.496;2023-05-20T07:51:58;102478.19;;;14.89;100.00
69630;BME280;56857;52.212;5.496;2023-05-20T07:54:23;102472.34;;;14.93;100.00
69630;BME280;56857;52.212;5.496;2023-05-20T07:56:49;102474.91;;;15.03;100.00
69630;BME280;56857;52.212;5.496;2023-05-20T07:59:14;102476.81;;;15.11;100.00
69630;BME280;56857;52.212;5.496;2023-05-20T08:01:41;102464.97;;;15.13;100.00
69630;BME280;56857;52.212;5.496;2023-05-20T08:04:06;102462.81;;;15.17;100.00
69630;BME280;56857;52.212;5.496;2023-05-20T08:06:32;102456.81;;;15.23;100.00
69630;BME280;56857;52.212;5.496;2023-05-20T08:08:57;102457.84;;;15.30;100.00
69630;BME280;56857;52.212;5.496;2023-05-20T08:11:23;102459.38;;;15.41;100.00
69630;BME280;56857;52.212;5.496;2023-05-20T08:13:48;102450.72;;;15.47;100.00
69630;BME280;56857;52.212;5.496;2023-05-20T08:16:14;102451.72;;;15.54;100.00
69630;BME280;56857;52.212;5.496;2023-05-20T08:18:39;102447.75;;;15.58;100.00
69630;BME280;56857;52.212;5.496;2023-05-20T08:21:06;102450.09;;;15.61;100.00
69630;BME280;56857;52.212;5.496;2023-05-20T08:23:31;102449.47;;;15.67;100.00
69630;BME280;56857;52.212;5.496;2023-05-20T08:25:56;102450.84;;;15.80;100.00
69630;BME280;56857;52.212;5.496;2023-05-20T08:28:22;102452.50;;;15.89;100.00
69630;BME280;56857;52.212;5.496;2023-05-20T08:30:56;102454.03;;;15.99;100.00
69630;BME280;56857;52.212;5.496;2023-05-20T08:33:21;102445.84;;;16.09;100.00
69630;BME280;56857;52.212;5.496;2023-05-20T08:35:47;102446.69;;;16.18;100.00
69630;BME280;56857;52.212;5.496;2023-05-20T08:38:13;102442.00;;;16.28;100.00
69630;BME280;56857;52.212;5.496;2023-05-20T08:40:39;102450.69;;;16.38;100.00
69630;BME280;56857;52.212;5.496;2023-05-20T08:43:04;102427.44;;;16.47;100.00
69630;BME280;56857;52.212;5.496;2023-05-20T08:45:31;102432.44;;;16.58;100.00
69630;BME280;56857;52.212;5.496;2023-05-20T08:47:57;102438.25;;;16.70;100.00
69630;BME280;56857;52.212;5.496;2023-05-20T08:50:22;102430.94;;;16.80;100.00
69630;BME280;56857;52.212;5.496;2023-05-20T08:52:48;102432.53;;;16.89;100.00
69630;BME280;56857;52.212;5.496;2023-05-20T08:55:16;102424.00;;;16.94;100.00
69630;BME280;56857;52.212;5.496;2023-05-20T08:57:42;102419.94;;;17.06;100.00
69630;BME280;56857;52.212;5.496;2023-05-20T09:00:08;102417.53;;;17.20;100.00
69630;BME280;56857;52.212;5.496;2023-05-20T09:02:36;102417.31;;;17.29;100.00
69630;BME280;56857;52.212;5.496;2023-05-20T09:05:02;102415.44;;;17.38;100.00
69630;BME280;56857;52.212;5.496;2023-05-20T09:07:27;102418.91;;;17.47;99.49
69630;BME280;56857;52.212;5.496;2023-05-20T09:09:53;102420.22;;;17.51;98.63
69630;BME280;56857;52.212;5.496;2023-05-20T09:12:19;102419.66;;;17.64;100.00
69630;BME280;56857;52.212;5.496;2023-05-20T09:14:45;102417.41;;;17.75;98.79
69630;BME280;56857;52.212;5.496;2023-05-20T09:17:11;102415.34;;;17.86;97.45
69630;BME280;56857;52.212;5.496;2023-05-20T09:19:37;102418.19;;;17.84;94.39
69630;BME280;56857;52.212;5.496;2023-05-20T09:22:03;102418.81;;;17.94;95.53
69630;BME280;56857;52.212;5.496;2023-05-20T09:24:28;102418.34;;;18.05;94.91
69630;BME280;56857;52.212;5.496;2023-05-20T09:26:53;102419.06;;;18.22;93.76
69630;BME280;56857;52.212;5.496;2023-05-20T09:29:19;102410.19;;;18.37;91.28
69630;BME280;56857;52.212;5.496;2023-05-20T09:31:44;102398.09;;;18.56;90.59
69630;BME280;56857;52.212;5.496;2023-05-20T09:34:10;102414.88;;;19.02;90.28
69630;BME280;56857;52.212;5.496;2023-05-20T09:36:38;102400.09;;;19.64;88.44
69630;BME280;56857;52.212;5.496;2023-05-20T09:39:07;102395.66;;;20.83;84.60
69630;BME280;56857;52.212;5.496;2023-05-20T09:41:38;102392.41;;;21.56;76.86
69630;BME280;56857;52.212;5.496;2023-05-20T09:44:05;102388.94;;;21.89;75.51
69630;BME280;56857;52.212;5.496;2023-05-20T09:46:33;102393.66;;;22.73;68.19
69630;BME280;56857;52.212;5.496;2023-05-20T09:48:58;102391.63;;;23.13;55.29
69630;BME280;56857;52.212;5.496;2023-05-20T09:51:24;102396.53;;;23.68;55.27
69630;BME280;56857;52.212;5.496;2023-05-20T09:53:50;102385.88;;;24.23;51.01
69630;BME280;56857;52.212;5.496;2023-05-20T09:56:18;102388.47;;;25.29;50.20
69630;BME280;56857;52.212;5.496;2023-05-20T09:58:44;102379.91;;;25.97;45.69
69630;BME280;56857;52.212;5.496;2023-05-20T10:01:10;102377.44;;;26.43;41.10
69630;BME280;56857;52.212;5.496;2023-05-20T10:03:35;102373.63;;;26.67;41.04
69630;BME280;56857;52.212;5.496;2023-05-20T10:06:34;102377.09;;;26.91;42.04
69630;BME280;56857;52.212;5.496;2023-05-20T10:09:16;102375.94;;;27.27;39.00
69630;BME280;56857;52.212;5.496;2023-05-20T10:12:16;102377.97;;;27.66;38.06
69630;BME280;56857;52.212;5.496;2023-05-20T10:15:26;102379.75;;;28.45;37.77
69630;BME280;56857;52.212;5.496;2023-05-20T10:18:00;102381.91;;;28.64;35.57
69630;BME280;56857;52.212;5.496;2023-05-20T10:20:29;102375.09;;;28.06;34.92
69630;BME280;56857;52.212;5.496;2023-05-20T10:22:56;102353.94;;;28.13;33.93
69630;BME280;56857;52.212;5.496;2023-05-20T10:25:27;102368.34;;;28.31;34.89
69630;BME280;56857;52.212;5.496;2023-05-20T10:28:05;102359.25;;;28.86;34.91
69630;BME280;56857;52.212;5.496;2023-05-20T10:30:32;102355.59;;;28.36;32.94
69630;BME280;56857;52.212;5.496;2023-05-20T10:33:02;102355.28;;;27.94;33.56
69630;BME280;56857;52.212;5.496;2023-05-20T10:35:28;102344.13;;;28.34;35.17
69630;BME280;56857;52.212;5.496;2023-05-20T10:38:05;102349.16;;;28.64;34.35
69630;BME280;56857;52.212;5.496;2023-05-20T10:40:39;102343.38;;;29.32;33.87
69630;BME280;56857;52.212;5.496;2023-05-20T10:43:13;102352.31;;;29.92;33.36
69630;BME280;56857;52.212;5.496;2023-05-20T10:45:53;102341.25;;;29.71;31.80
69630;BME280;56857;52.212;5.496;2023-05-20T10:48:30;102333.75;;;29.89;31.92
69630;BME280;56857;52.212;5.496;2023-05-20T10:50:57;102328.63;;;30.02;32.14
69630;BME280;56857;52.212;5.496;2023-05-20T10:53:24;102339.47;;;29.87;31.44
69630;BME280;56857;52.212;5.496;2023-05-20T10:55:50;102334.94;;;29.66;31.94
69630;BME280;56857;52.212;5.496;2023-05-20T10:58:17;102326.47;;;29.67;32.17
69630;BME280;56857;52.212;5.496;2023-05-20T11:00:42;102323.47;;;29.69;29.63
69630;BME280;56857;52.212;5.496;2023-05-20T11:03:08;102328.47;;;29.82;32.04
69630;BME280;56857;52.212;5.496;2023-05-20T11:05:34;102322.66;;;30.16;32.62
69630;BME280;56857;52.212;5.496;2023-05-20T11:08:04;102321.78;;;30.53;31.69
69630;BME280;56857;52.212;5.496;2023-05-20T11:10:30;102306.75;;;30.60;31.47
69630;BME280;56857;52.212;5.496;2023-05-20T11:12:56;102310.38;;;30.86;31.65
69630;BME280;56857;52.212;5.496;2023-05-20T11:15:22;102309.06;;;31.14;31.65
69630;BME280;56857;52.212;5.496;2023-05-20T11:17:55;102298.66;;;30.96;31.00
69630;BME280;56857;52.212;5.496;2023-05-20T11:20:21;102302.91;;;30.56;32.15
69630;BME280;56857;52.212;5.496;2023-05-20T11:22:51;102304.50;;;30.37;31.58
69630;BME280;56857;52.212;5.496;2023-05-20T11:25:17;102308.28;;;29.83;32.72
69630;BME280;56857;52.212;5.496;2023-05-20T11:27:43;102307.91;;;28.39;34.10
69630;BME280;56857;52.212;5.496;2023-05-20T11:30:10;102300.03;;;28.21;34.49
69630;BME280;56857;52.212;5.496;2023-05-20T11:32:38;102306.97;;;28.28;34.99
69630;BME280;56857;52.212;5.496;2023-05-20T11:35:04;102296.25;;;28.22;35.21
69630;BME280;56857;52.212;5.496;2023-05-20T11:37:29;102292.84;;;27.25;35.30
69630;BME280;56857;52.212;5.496;2023-05-20T11:40:02;102299.41;;;26.31;37.57
69630;BME280;56857;52.212;5.496;2023-05-20T11:42:28;102297.50;;;26.55;38.22
69630;BME280;56857;52.212;5.496;2023-05-20T11:44:53;102294.53;;;26.86;38.38
69630;BME280;56857;52.212;5.496;2023-05-20T11:47:23;102280.47;;;27.34;37.66
69630;BME280;56857;52.212;5.496;2023-05-20T11:49:49;102282.72;;;28.10;36.81
69630;BME280;56857;52.212;5.496;2023-05-20T11:52:15;102281.47;;;28.61;35.95
69630;BME280;56857;52.212;5.496;2023-05-20T11:54:40;102275.47;;;29.14;34.77
69630;BME280;56857;52.212;5.496;2023-05-20T11:57:06;102268.97;;;29.57;34.30
69630;BME280;56857;52.212;5.496;2023-05-20T11:59:31;102265.13;;;29.90;33.71
69630;BME280;56857;52.212;5.496;2023-05-20T12:01:57;102260.44;;;30.38;33.27
69630;BME280;56857;52.212;5.496;2023-05-20T12:04:22;102252.31;;;30.01;32.67
69630;BME280;56857;52.212;5.496;2023-05-20T12:06:47;102259.16;;;29.98;33.75
69630;BME280;56857;52.212;5.496;2023-05-20T12:09:13;102258.53;;;28.62;34.68
69630;BME280;56857;52.212;5.496;2023-05-20T12:11:38;102250.88;;;27.93;34.84
69630;BME280;56857;52.212;5.496;2023-05-20T12:14:04;102254.88;;;28.30;35.18
69630;BME280;56857;52.212;5.496;2023-05-20T12:16:31;102254.63;;;27.54;36.57
69630;BME280;56857;52.212;5.496;2023-05-20T12:18:57;102250.69;;;26.53;38.18
69630;BME280;56857;52.212;5.496;2023-05-20T12:21:22;102256.34;;;25.76;39.63
69630;BME280;56857;52.212;5.496;2023-05-20T12:23:47;102250.31;;;25.74;41.16
69630;BME280;56857;52.212;5.496;2023-05-20T12:26:13;102255.09;;;25.25;42.01
69630;BME280;56857;52.212;5.496;2023-05-20T12:28:38;102243.06;;;24.61;42.38
69630;BME280;56857;52.212;5.496;2023-05-20T12:31:03;102240.72;;;24.64;42.65
69630;BME280;56857;52.212;5.496;2023-05-20T12:33:30;102236.47;;;24.38;44.62
69630;BME280;56857;52.212;5.496;2023-05-20T12:35:55;102235.72;;;23.94;45.32
69630;BME280;56857;52.212;5.496;2023-05-20T12:38:20;102249.22;;;23.76;47.26